Riverhurst, Canada
Current Conditions -  °F | °C
As of 11:00 PM on Friday 28 Nov 2014 (Local Time) from CYYN Reporting Station
Light Snow Light Snow  
Wind Chill: -26°   Ceiling: 2300
Heat Index: -2°   Visibility: 0.75mi
Dew Point: -6°   Wind: 22mph
Humidity: 85%   Direction: 310°NW
Pressure: 29.55"   Gusts: 29mph
Location:  50.92°N, 106.85°W
Report Text: CYYN 290500Z AUTO 31019G25KT 3/4SM -SN SCT017 BKN023 OVC028 M19/M21 A2955 RMK SLP066
Loading
Personal Weather Stations






























Interactive Weather Map New forecast layout! Learn more

10-Day Weather Forecast

Advertisements
Track Severe Weather on mobile